Pagina principale
METAR-TAF:

METAR-TAF

Aeroporti :

Lawson Army Airfield

Fort Benning / Columbus, Georgia, Stati Uniti

latitudine: 32-20N, longitudine: 084-50W, altezza: 71 m

Osservazione

Il bollettino è stato emesso 43 minuti fa, alle 22:56 UTC
Vento 4 kt da sud
Temperature 24°C
Umidità 29%
Pressione 1020 hPa
Visibilità: 16.1 km
Cielo sereno

METAR: KLSF 242256Z AUTO 17004KT 10SM CLR 24/05 A3011 RMK AO2 SLP201 T02440052

Ora: 19:39 (23:39 UTC)

Previsione

Il bollettino è stato emesso 46 ore e 39 minuti fa, alle 01:00 UTC
Previsione valida dal 23 alle 01 UTC al 24 alle 07 UTC
Vento 3 kt da direzioni variabili
Visibilità: 2501 m
Cielo sereno

TAF: KLSF 230100Z 2301/2407 VRB03KT 9999 SKC QNH3006INS TX23/2320Z TN06/2311Z LAST NO AMDS AFT 2303 NEXT 2501

Osservazioni e previsioni meteorologiche di più di 4000 aeroporti (messaggi METAR e TAF).

Le stazioni disponibili sono rappresentate dai dischi gialli e rossi sulla carta.

Puntare il mouse per vedere il nome della stazione.

Clicca sopra per visualizzare le osservazioni e previsioni meteorologiche.

Per cambiare la mappa : fare clic sui pulsanti verdi con una croce nera per ingrandire, il pulsante verde con un trattino per diminuire, o sulla freccia verde per le mappe adiacenti.


METAR-TAF: